createdAt,value
2019-01-25T00:02:26.769Z,15.40
2019-01-25T00:04:55.135Z,16.17
2019-01-25T00:07:23.459Z,18.27
2019-01-25T00:09:58.474Z,17.33
2019-01-25T00:12:22.226Z,17.07
2019-01-25T00:14:50.691Z,18.07
2019-01-25T00:17:19.065Z,18.57
2019-01-25T00:19:47.390Z,18.47
2019-01-25T00:22:15.748Z,17.40
2019-01-25T00:24:44.083Z,18.57
2019-01-25T00:27:12.735Z,19.17
2019-01-25T00:29:41.053Z,20.40
2019-01-25T00:32:09.655Z,19.07
2019-01-25T00:34:37.970Z,18.57
2019-01-25T00:37:06.332Z,18.70
2019-01-25T00:39:34.684Z,18.10
2019-01-25T00:42:03.049Z,18.65
2019-01-25T00:44:31.390Z,17.95
2019-01-25T00:46:59.751Z,19.10
2019-01-25T00:49:29.056Z,18.43
2019-01-25T00:51:57.421Z,18.60
2019-01-25T00:54:25.756Z,18.37
2019-01-25T00:56:54.113Z,18.10
2019-01-25T00:59:22.528Z,20.07
2019-01-25T01:01:51.190Z,17.10
2019-01-25T01:04:19.497Z,17.47
2019-01-25T01:06:48.141Z,20.40
2019-01-25T01:09:16.553Z,18.70
2019-01-25T01:11:44.956Z,19.00
2019-01-25T01:14:13.310Z,18.97
2019-01-25T01:16:41.659Z,19.97
2019-01-25T01:19:10.799Z,20.33
2019-01-25T01:21:39.118Z,17.53
2019-01-25T01:24:07.551Z,20.08
2019-01-25T01:26:36.848Z,19.10
2019-01-25T01:29:05.208Z,19.90
2019-01-25T01:31:33.601Z,20.37
2019-01-25T01:34:02.062Z,18.23
2019-01-25T01:36:30.381Z,18.87
2019-01-25T01:38:58.785Z,16.50
2019-01-25T01:41:27.133Z,18.25
2019-01-25T01:43:55.486Z,18.47
2019-01-25T01:46:23.850Z,18.60
2019-01-25T01:48:52.197Z,17.00
2019-01-25T01:51:20.656Z,16.10
2019-01-25T01:53:49.002Z,18.27
2019-01-25T01:56:17.350Z,17.98
2019-01-25T01:58:45.721Z,17.93
2019-01-25T02:01:14.090Z,17.30
2019-01-25T02:03:42.528Z,19.57
2019-01-25T02:06:11.137Z,17.20
2019-01-25T02:08:39.787Z,16.30
2019-01-25T02:11:08.350Z,17.67
2019-01-25T02:13:36.917Z,16.27
2019-01-25T02:16:05.260Z,15.70
2019-01-25T02:18:33.609Z,16.73
2019-01-25T02:21:02.098Z,17.17
2019-01-25T02:23:30.543Z,15.80
2019-01-25T02:25:59.566Z,15.50
2019-01-25T02:28:28.125Z,16.73
2019-01-25T02:30:56.446Z,16.60
2019-01-25T02:33:25.661Z,19.37
2019-01-25T02:35:54.007Z,17.87
2019-01-25T02:38:22.369Z,21.10
2019-01-25T02:40:50.796Z,20.90
2019-01-25T02:43:19.172Z,21.17
2019-01-25T02:45:47.590Z,20.90
2019-01-25T02:48:16.079Z,20.75
2019-01-25T02:50:44.463Z,22.83
2019-01-25T02:53:13.208Z,20.83
2019-01-25T02:55:41.549Z,20.25
2019-01-25T02:58:10.306Z,21.12
2019-01-25T03:00:38.713Z,19.50
2019-01-25T03:03:07.030Z,20.27
2019-01-25T03:05:35.404Z,18.92
2019-01-25T03:08:03.794Z,20.10
2019-01-25T03:10:32.306Z,18.47
2019-01-25T03:13:00.664Z,18.80
2019-01-25T03:15:29.076Z,18.70
2019-01-25T03:17:57.437Z,20.80
2019-01-25T03:20:26.768Z,18.93
2019-01-25T03:22:55.119Z,18.17
2019-01-25T03:25:25.461Z,19.90
2019-01-25T03:27:53.789Z,19.37
2019-01-25T03:30:23.050Z,19.77
2019-01-25T03:32:51.616Z,19.03
2019-01-25T03:35:20.930Z,21.43
2019-01-25T03:37:49.522Z,18.77
2019-01-25T03:40:20.801Z,20.47
2019-01-25T03:42:49.258Z,19.87
2019-01-25T03:45:17.996Z,20.73
2019-01-25T03:47:46.501Z,20.93
2019-01-25T03:50:19.605Z,20.33
2019-01-25T03:52:48.718Z,19.40
2019-01-25T03:55:17.184Z,19.80
2019-01-25T03:57:45.856Z,21.20
2019-01-25T04:00:18.326Z,21.33
2019-01-25T04:02:46.888Z,19.20
2019-01-25T04:05:15.984Z,20.50
2019-01-25T04:07:44.438Z,20.40
2019-01-25T04:10:16.125Z,21.23
2019-01-25T04:12:44.551Z,19.27
2019-01-25T04:15:16.134Z,21.30
2019-01-25T04:17:44.538Z,21.83
2019-01-25T04:20:15.550Z,22.40
2019-01-25T04:22:43.945Z,21.02
2019-01-25T04:25:15.969Z,21.43
2019-01-25T04:27:44.359Z,21.93
2019-01-25T04:30:16.078Z,22.58
2019-01-25T04:32:44.576Z,22.13
2019-01-25T04:35:13.613Z,21.45
2019-01-25T04:37:42.019Z,22.73
2019-01-25T04:40:12.611Z,21.57
2019-01-25T04:42:41.012Z,22.40
2019-01-25T04:45:14.069Z,22.70
2019-01-25T04:47:42.477Z,20.73
2019-01-25T04:50:13.458Z,21.62
2019-01-25T04:52:41.883Z,21.50
2019-01-25T04:55:15.331Z,21.93
2019-01-25T04:57:43.746Z,22.37
2019-01-25T05:00:14.604Z,22.70
2019-01-25T05:02:48.869Z,21.77
2019-01-25T05:05:17.195Z,20.52
2019-01-25T05:07:45.631Z,21.45
2019-01-25T05:10:14.572Z,22.37
2019-01-25T05:15:56.731Z,22.37
2019-01-25T05:18:25.094Z,21.80
2019-01-25T05:20:53.436Z,22.13
2019-01-25T05:23:21.796Z,24.27
2019-01-25T05:25:50.215Z,23.87
2019-01-25T05:28:18.797Z,27.43
2019-01-25T05:30:52.075Z,25.63
2019-01-25T05:33:20.618Z,28.00
2019-01-25T05:35:48.984Z,41.13
2019-01-25T05:38:17.732Z,24.43
2019-01-25T05:40:46.074Z,28.33
2019-01-25T05:43:14.491Z,23.93
2019-01-25T05:45:43.690Z,22.50
2019-01-25T05:48:12.816Z,21.75
2019-01-25T05:50:41.278Z,23.67
2019-01-25T05:53:10.211Z,21.47
2019-01-25T05:55:38.520Z,22.75
2019-01-25T05:58:08.433Z,21.45
2019-01-25T06:00:39.103Z,22.57
2019-01-25T06:03:09.322Z,23.03
2019-01-25T06:05:37.810Z,22.87
2019-01-25T06:08:13.898Z,21.57
2019-01-25T06:10:42.250Z,22.67
2019-01-25T06:13:11.041Z,23.00
2019-01-25T06:15:39.373Z,21.50
2019-01-25T06:18:07.736Z,22.80
2019-01-25T06:20:36.071Z,23.87
2019-01-25T06:23:04.401Z,22.87
2019-01-25T06:25:32.761Z,21.87
2019-01-25T06:28:04.838Z,23.03
2019-01-25T06:30:33.192Z,22.77
2019-01-25T06:39:00.281Z,25.50
2019-01-25T06:41:28.618Z,25.50
2019-01-25T06:43:57.006Z,23.90
2019-01-25T06:46:25.335Z,23.53
2019-01-25T06:48:53.770Z,23.50
2019-01-25T06:51:22.101Z,23.60
2019-01-25T06:53:50.450Z,24.85
2019-01-25T06:56:18.828Z,23.20
2019-01-25T06:58:49.649Z,24.10
2019-01-25T07:01:19.391Z,23.57
2019-01-25T07:03:47.737Z,22.65
2019-01-25T07:06:16.146Z,25.33
2019-01-25T07:08:44.543Z,24.65
2019-01-25T07:11:12.953Z,24.23
2019-01-25T07:13:41.298Z,25.20
2019-01-25T07:16:09.705Z,24.20
2019-01-25T07:18:38.061Z,24.47
2019-01-25T07:21:06.735Z,24.77
2019-01-25T07:23:35.049Z,24.77
2019-01-25T07:26:03.637Z,22.97
2019-01-25T07:28:32.011Z,23.73
2019-01-25T07:31:01.133Z,24.40
2019-01-25T07:33:29.568Z,24.60
2019-01-25T07:35:58.073Z,25.77
2019-01-25T07:38:26.397Z,24.53
2019-01-25T07:40:54.874Z,25.65
2019-01-25T07:43:23.222Z,23.83
2019-01-25T07:45:51.666Z,21.95
2019-01-25T07:48:20.286Z,24.20
2019-01-25T07:50:49.021Z,24.93
2019-01-25T07:53:17.479Z,24.40
2019-01-25T07:55:45.826Z,25.95
2019-01-25T07:58:14.196Z,26.10
2019-01-25T08:00:42.542Z,24.50
2019-01-25T08:03:10.877Z,24.82
2019-01-25T08:05:39.510Z,26.97
2019-01-25T08:08:08.561Z,24.97
2019-01-25T08:10:37.913Z,26.67
2019-01-25T08:13:06.572Z,29.30
2019-01-25T08:15:35.044Z,29.00
2019-01-25T08:18:03.533Z,23.77
2019-01-25T08:20:31.979Z,26.77
2019-01-25T08:23:00.423Z,23.70
2019-01-25T08:25:28.889Z,26.93
2019-01-25T08:27:57.381Z,25.77
2019-01-25T08:30:25.945Z,26.77
2019-01-25T08:32:54.460Z,25.60
2019-01-25T08:35:23.107Z,28.87
2019-01-25T08:37:51.690Z,27.30
2019-01-25T08:40:20.053Z,26.77
2019-01-25T08:42:48.578Z,26.20
2019-01-25T08:45:18.121Z,27.10
2019-01-25T08:47:46.738Z,27.37
2019-01-25T08:50:19.137Z,27.87
2019-01-25T08:52:47.681Z,25.60
2019-01-25T08:55:16.324Z,27.57
2019-01-25T08:57:45.035Z,26.70
2019-01-25T09:00:15.001Z,28.40
2019-01-25T09:02:43.426Z,28.20
2019-01-25T09:05:12.285Z,26.73
2019-01-25T09:07:40.945Z,27.13
2019-01-25T09:10:11.789Z,28.03
2019-01-25T09:12:40.208Z,33.27
2019-01-25T09:15:12.375Z,30.23
2019-01-25T09:17:40.800Z,30.27
2019-01-25T09:20:14.591Z,28.47
2019-01-25T09:22:41.485Z,31.12
2019-01-25T09:25:10.486Z,28.00
2019-01-25T09:27:38.841Z,28.30
2019-01-25T09:30:11.927Z,29.10
2019-01-25T09:32:40.256Z,30.20
2019-01-25T09:35:10.096Z,27.70
2019-01-25T09:37:38.581Z,28.90
2019-01-25T09:40:09.106Z,28.67
2019-01-25T09:42:37.408Z,27.87
2019-01-25T09:45:10.392Z,27.07
2019-01-25T09:47:38.717Z,28.87
2019-01-25T09:50:11.621Z,29.80
2019-01-25T09:52:39.955Z,28.50
2019-01-25T09:55:11.629Z,27.07
2019-01-25T09:57:40.196Z,28.32
2019-01-25T10:00:14.157Z,27.40
2019-01-25T10:02:42.510Z,31.37
2019-01-25T10:05:11.359Z,30.92
2019-01-25T10:07:39.705Z,31.65
2019-01-25T10:10:09.715Z,30.00
2019-01-25T10:12:43.242Z,31.23
2019-01-25T10:15:14.281Z,30.00
2019-01-25T10:17:42.645Z,30.30
2019-01-25T10:20:11.717Z,28.40
2019-01-25T10:22:40.136Z,30.90
2019-01-25T10:25:10.733Z,29.63
2019-01-25T10:27:39.100Z,28.60
2019-01-25T10:30:12.693Z,29.23
2019-01-25T10:32:41.151Z,30.60
2019-01-25T10:35:11.636Z,30.32
2019-01-25T10:37:39.983Z,29.90
2019-01-25T10:40:12.846Z,33.70
2019-01-25T10:42:45.635Z,30.50
2019-01-25T10:45:14.811Z,32.28
2019-01-25T10:47:43.129Z,30.63
2019-01-25T10:50:11.666Z,32.00
2019-01-25T10:52:39.989Z,31.10
2019-01-25T10:55:11.025Z,31.53
2019-01-25T10:57:39.672Z,31.67
2019-01-25T11:00:12.599Z,31.17
2019-01-25T11:02:41.070Z,28.93
2019-01-25T11:05:14.400Z,30.73
2019-01-25T11:07:42.739Z,32.40
2019-01-25T11:10:11.215Z,30.60
2019-01-25T11:12:39.644Z,32.60
2019-01-25T11:15:09.954Z,30.62
2019-01-25T11:17:38.301Z,31.30
2019-01-25T11:20:11.710Z,31.57
2019-01-25T11:22:40.054Z,32.77
2019-01-25T11:25:11.762Z,31.87
2019-01-25T11:27:40.108Z,30.93
2019-01-25T11:30:11.285Z,31.10
2019-01-25T11:32:39.637Z,31.73
2019-01-25T11:35:08.481Z,32.33
2019-01-25T11:37:36.919Z,33.20
2019-01-25T11:40:09.987Z,33.10
2019-01-25T11:42:38.339Z,32.67
2019-01-25T11:45:10.236Z,32.33
2019-01-25T11:47:38.657Z,33.73
2019-01-25T11:50:11.563Z,32.10
2019-01-25T11:52:40.003Z,32.97
2019-01-25T11:55:09.728Z,33.07
2019-01-25T11:57:38.190Z,31.90
2019-01-25T12:00:13.556Z,32.90
2019-01-25T12:02:42.000Z,30.40
2019-01-25T12:05:11.806Z,31.67
2019-01-25T12:07:40.217Z,32.77
2019-01-25T12:10:12.748Z,30.13
2019-01-25T12:12:41.089Z,32.58
2019-01-25T12:15:11.200Z,32.27
2019-01-25T12:17:39.530Z,32.30
2019-01-25T12:20:10.800Z,32.50
2019-01-25T12:22:39.263Z,30.83
2019-01-25T12:25:10.366Z,31.93
2019-01-25T12:27:38.762Z,31.70
2019-01-25T12:30:13.563Z,32.50
2019-01-25T12:32:42.902Z,33.55
2019-01-25T12:35:12.534Z,32.20
2019-01-25T12:37:41.021Z,31.83
2019-01-25T12:40:12.673Z,30.72
2019-01-25T12:42:41.017Z,32.03
2019-01-25T12:45:13.065Z,33.40
2019-01-25T12:47:41.479Z,33.57
2019-01-25T12:50:16.206Z,30.87
2019-01-25T12:52:44.589Z,31.67
2019-01-25T12:55:13.053Z,30.08
2019-01-25T12:57:41.496Z,33.60
2019-01-25T13:00:14.297Z,32.30
2019-01-25T13:02:42.791Z,29.87
2019-01-25T13:05:14.853Z,33.47
2019-01-25T13:07:43.213Z,32.83
2019-01-25T13:10:14.914Z,32.95
2019-01-25T13:12:43.392Z,32.77
2019-01-25T13:15:12.937Z,31.57
2019-01-25T13:17:41.353Z,32.70
2019-01-25T13:20:14.710Z,33.43
2019-01-25T13:22:43.177Z,32.38
2019-01-25T13:25:11.839Z,33.73
2019-01-25T13:27:40.390Z,31.20
2019-01-25T13:30:11.234Z,31.20
2019-01-25T13:32:39.709Z,30.90
2019-01-25T13:35:10.024Z,31.47
2019-01-25T13:37:38.741Z,31.37
2019-01-25T13:40:10.544Z,32.63
2019-01-25T13:42:38.925Z,33.88
2019-01-25T13:45:10.703Z,30.57
2019-01-25T13:47:39.162Z,30.77
2019-01-25T13:50:11.590Z,31.23
2019-01-25T13:52:39.985Z,32.73
2019-01-25T13:55:09.918Z,30.40
2019-01-25T13:57:38.376Z,30.80
2019-01-25T14:00:11.290Z,32.57
2019-01-25T14:02:39.636Z,31.87
2019-01-25T14:05:09.685Z,31.50
2019-01-25T14:07:38.022Z,32.07
2019-01-25T14:10:11.062Z,32.10
2019-01-25T14:12:39.475Z,29.30
2019-01-25T14:15:09.241Z,31.33
2019-01-25T14:17:37.642Z,30.10
2019-01-25T14:20:12.645Z,30.80
2019-01-25T14:22:40.985Z,32.10
2019-01-25T14:25:10.577Z,30.70
2019-01-25T14:27:38.950Z,32.37
2019-01-25T14:30:13.415Z,32.03
2019-01-25T14:32:41.835Z,31.47
2019-01-25T14:35:10.682Z,30.40
2019-01-25T14:37:39.228Z,29.87
2019-01-25T14:40:08.396Z,30.17
2019-01-25T14:42:36.708Z,31.20
2019-01-25T14:45:08.109Z,32.67
2019-01-25T14:47:36.425Z,30.73
2019-01-25T14:50:10.869Z,31.40
2019-01-25T14:52:39.297Z,31.55
2019-01-25T14:55:08.069Z,29.43
2019-01-25T14:57:36.499Z,31.20
2019-01-25T15:00:07.800Z,29.50
2019-01-25T15:02:36.444Z,30.27
2019-01-25T15:05:10.717Z,28.65
2019-01-25T15:07:39.058Z,29.77
2019-01-25T15:10:11.765Z,29.13
2019-01-25T15:12:40.280Z,30.05
2019-01-25T15:15:10.526Z,27.50
2019-01-25T15:17:38.885Z,30.10
2019-01-25T15:20:10.566Z,30.27
2019-01-25T15:22:38.935Z,28.90
2019-01-25T15:25:07.890Z,29.13
2019-01-25T15:27:36.275Z,29.03
2019-01-25T15:30:08.085Z,27.00
2019-01-25T15:32:36.412Z,29.47
2019-01-25T15:35:08.487Z,31.20
2019-01-25T15:37:36.820Z,25.73
2019-01-25T15:40:09.097Z,29.30
2019-01-25T15:42:37.411Z,28.07
2019-01-25T15:45:09.829Z,29.63
2019-01-25T15:47:38.325Z,28.42
2019-01-25T15:50:13.040Z,28.90
2019-01-25T15:52:41.460Z,27.53
2019-01-25T15:55:10.533Z,24.43
2019-01-25T15:57:39.631Z,26.57
2019-01-25T16:00:10.352Z,24.33
2019-01-25T16:02:38.820Z,24.47
2019-01-25T16:05:08.548Z,22.27
2019-01-25T16:07:37.286Z,22.42
2019-01-25T16:10:09.636Z,20.53
2019-01-25T16:12:38.032Z,21.87
2019-01-25T16:15:09.266Z,20.27
2019-01-25T16:17:38.113Z,20.27
2019-01-25T16:20:10.131Z,19.40
2019-01-25T16:22:38.458Z,20.93
2019-01-25T16:25:10.781Z,19.90
2019-01-25T16:27:39.125Z,18.87
2019-01-25T16:30:11.595Z,20.10
2019-01-25T16:32:39.923Z,20.50
2019-01-25T16:35:09.681Z,19.40
2019-01-25T16:37:38.001Z,18.97
2019-01-25T16:40:08.935Z,19.30
2019-01-25T16:42:37.345Z,17.25
2019-01-25T16:45:10.726Z,18.40
2019-01-25T16:47:39.112Z,16.83
2019-01-25T16:50:08.728Z,17.73
2019-01-25T16:52:37.181Z,18.17
2019-01-25T16:55:08.334Z,16.00
2019-01-25T16:57:36.719Z,14.80
2019-01-25T17:00:10.977Z,14.70
2019-01-25T17:02:39.284Z,15.27
2019-01-25T17:05:09.257Z,12.40
2019-01-25T17:07:37.618Z,12.10
2019-01-25T17:10:09.533Z,12.88
2019-01-25T17:12:37.928Z,12.10
2019-01-25T17:15:09.696Z,11.97
2019-01-25T17:17:38.245Z,13.05
2019-01-25T17:20:17.222Z,13.20
2019-01-25T17:22:42.131Z,13.20
2019-01-25T17:25:12.000Z,13.20
2019-01-25T17:27:40.548Z,13.77
2019-01-25T17:30:15.076Z,14.83
2019-01-25T17:32:43.411Z,14.60
2019-01-25T17:35:12.569Z,15.60
2019-01-25T17:37:40.887Z,15.33
2019-01-25T17:40:13.536Z,16.03
2019-01-25T17:42:41.904Z,15.93
2019-01-25T17:45:11.663Z,16.60
2019-01-25T17:47:40.105Z,15.80
2019-01-25T17:50:12.638Z,17.37
2019-01-25T17:52:41.004Z,17.43
2019-01-25T17:55:13.353Z,17.00
2019-01-25T17:57:41.741Z,16.00
2019-01-25T18:00:14.494Z,16.42
2019-01-25T18:02:42.862Z,21.17
2019-01-25T18:05:12.250Z,17.77
2019-01-25T18:07:40.551Z,17.82
2019-01-25T18:10:14.664Z,17.13
2019-01-25T18:12:43.492Z,16.43
2019-01-25T18:15:15.249Z,16.50
2019-01-25T18:17:44.332Z,16.70
2019-01-25T18:20:18.539Z,15.10
2019-01-25T18:22:46.880Z,15.43
2019-01-25T18:25:18.699Z,17.23
2019-01-25T18:27:50.849Z,16.30
2019-01-25T18:30:23.195Z,17.47
2019-01-25T18:32:51.621Z,16.27
2019-01-25T18:35:20.033Z,18.27
2019-01-25T18:37:48.437Z,17.30
2019-01-25T18:40:16.891Z,17.80
2019-01-25T18:42:45.545Z,17.30
2019-01-25T18:45:14.154Z,18.40
2019-01-25T18:47:42.641Z,17.33
2019-01-25T18:50:13.268Z,18.40
2019-01-25T18:52:41.692Z,17.70
2019-01-25T18:55:14.036Z,17.47
2019-01-25T18:57:42.386Z,18.77
2019-01-25T19:00:15.616Z,18.23
2019-01-25T19:02:44.068Z,18.30
2019-01-25T19:05:13.261Z,17.70
2019-01-25T19:07:41.841Z,19.42
2019-01-25T19:10:14.762Z,18.00
2019-01-25T19:12:43.114Z,18.37
2019-01-25T19:15:15.467Z,20.10
2019-01-25T19:17:43.826Z,18.60
2019-01-25T19:20:14.032Z,19.83
2019-01-25T19:22:42.426Z,19.60
2019-01-25T19:25:12.118Z,18.27
2019-01-25T19:27:40.589Z,17.57
2019-01-25T19:30:14.744Z,21.73
2019-01-25T19:32:43.350Z,19.07
2019-01-25T19:35:13.162Z,19.20
2019-01-25T19:37:42.003Z,19.40
2019-01-25T19:40:13.394Z,20.63
2019-01-25T19:42:41.725Z,21.47
2019-01-25T19:45:12.246Z,20.72
2019-01-25T19:47:40.576Z,20.40
2019-01-25T19:50:12.887Z,21.10
2019-01-25T19:52:41.353Z,20.17
2019-01-25T19:55:13.073Z,21.12
2019-01-25T19:57:41.519Z,20.10
2019-01-25T20:00:14.442Z,20.40
2019-01-25T20:02:43.061Z,20.60
2019-01-25T20:05:14.414Z,21.02
2019-01-25T20:10:15.801Z,20.87
2019-01-25T20:12:44.286Z,21.35
2019-01-25T20:15:19.548Z,19.55
2019-01-25T20:17:46.295Z,20.80
2019-01-25T20:20:17.691Z,21.60
2019-01-25T20:22:46.295Z,23.27
2019-01-25T20:25:15.138Z,21.00
2019-01-25T20:27:43.518Z,21.80
2019-01-25T20:30:16.426Z,22.27
2019-01-25T20:32:44.847Z,21.70
2019-01-25T20:35:17.404Z,22.60
2019-01-25T20:37:45.784Z,20.43
2019-01-25T20:40:15.261Z,21.83
2019-01-25T20:42:44.278Z,21.57
2019-01-25T20:45:16.444Z,23.00
2019-01-25T20:47:44.772Z,21.00
2019-01-25T20:50:16.825Z,23.43
2019-01-25T20:52:45.157Z,23.57
2019-01-25T20:55:15.881Z,21.13
2019-01-25T20:57:44.712Z,20.27
2019-01-25T21:00:18.494Z,21.20
2019-01-25T21:02:46.891Z,21.03
2019-01-25T21:05:15.398Z,19.13
2019-01-25T21:07:43.984Z,21.77
2019-01-25T21:10:14.200Z,22.95
2019-01-25T21:12:42.665Z,22.80
2019-01-25T21:15:13.797Z,22.60
2019-01-25T21:17:42.238Z,21.70
2019-01-25T21:20:14.719Z,22.60
2019-01-25T21:22:43.082Z,20.80
2019-01-25T21:25:12.108Z,20.27
2019-01-25T21:27:40.500Z,20.67
2019-01-25T21:30:11.873Z,20.80
2019-01-25T21:32:40.332Z,20.62
2019-01-25T21:35:09.876Z,19.60
2019-01-25T21:37:38.342Z,21.25
2019-01-25T21:40:11.239Z,20.67
2019-01-25T21:42:39.544Z,21.10
2019-01-25T21:45:11.805Z,19.83
2019-01-25T21:47:40.130Z,21.10
2019-01-25T21:50:11.805Z,22.17
2019-01-25T21:52:40.245Z,20.53
2019-01-25T21:55:12.276Z,20.13
2019-01-25T21:57:40.679Z,18.70
2019-01-25T22:00:13.335Z,20.80
2019-01-25T22:02:41.701Z,21.33
2019-01-25T22:05:10.446Z,19.95
2019-01-25T22:07:39.109Z,19.43
2019-01-25T22:10:13.052Z,19.93
2019-01-25T22:12:41.819Z,21.07
2019-01-25T22:15:13.618Z,20.77
2019-01-25T22:17:41.948Z,19.13
2019-01-25T22:20:14.890Z,19.17
2019-01-25T22:22:43.321Z,21.33
2019-01-25T22:25:13.007Z,20.90
2019-01-25T22:27:42.017Z,19.50
2019-01-25T22:30:14.301Z,20.00
2019-01-25T22:32:42.923Z,20.23
2019-01-25T22:35:11.722Z,20.92
2019-01-25T22:37:40.057Z,19.10
2019-01-25T22:40:10.777Z,20.30
2019-01-25T22:42:39.146Z,21.57
2019-01-25T22:45:12.522Z,18.93
2019-01-25T22:47:40.954Z,19.60
2019-01-25T22:50:14.174Z,17.57
2019-01-25T22:52:42.587Z,18.57
2019-01-25T22:55:14.083Z,18.80
2019-01-25T22:57:42.480Z,17.57
2019-01-25T23:00:14.311Z,23.60
2019-01-25T23:02:42.747Z,18.50
2019-01-25T23:05:14.571Z,17.40
2019-01-25T23:07:42.907Z,19.95
2019-01-25T23:10:12.931Z,17.93
2019-01-25T23:12:41.261Z,18.10
2019-01-25T23:15:10.581Z,18.70
2019-01-25T23:17:39.006Z,17.77
2019-01-25T23:20:08.549Z,17.57
2019-01-25T23:22:37.029Z,17.30
2019-01-25T23:25:07.106Z,18.53
2019-01-25T23:27:35.480Z,18.43
2019-01-25T23:30:07.709Z,17.57
2019-01-25T23:32:36.070Z,16.10
2019-01-25T23:35:05.533Z,17.47
2019-01-25T23:37:37.864Z,18.00
2019-01-25T23:40:08.061Z,16.00
2019-01-25T23:42:36.411Z,17.90
2019-01-25T23:45:06.864Z,17.50
2019-01-25T23:47:35.211Z,18.10
2019-01-25T23:50:05.898Z,18.90
2019-01-25T23:52:34.297Z,15.63
2019-01-25T23:55:02.670Z,15.93
2019-01-25T23:57:31.044Z,16.73
2019-01-25T23:59:59.377Z,16.50
